Time;durP1;ratioP1;P1;durP2;ratioP2;P2;SDS_P1;SDS_P2;PMS_P1;PMS_P2;Temp;Humidity;BMP_temperature;BMP_pressure;BME280_temperature;BME280_humidity;BME280_pressure;Samples;Min_cycle;Max_cycle;Signal;HPM_P1;HPM_P2
2021/07/13 00:00:51;;;;;;;2.85;2.15;;;;;;;;;;5020882;28;20030;-84
2021/07/13 00:03:17;;;;;;;3.88;2.55;;;;;;;;;;5021192;28;20080;-85
2021/07/13 00:05:43;;;;;;;2.85;2.33;;;;;;;;;;5022272;28;20153;-79
2021/07/13 00:08:09;;;;;;;2.92;2.50;;;;;;;;;;5002611;28;20057;-84
2021/07/13 00:10:38;;;;;;;2.15;2.00;;;;;;;;;;5004052;28;20030;-84
2021/07/13 00:13:04;;;;;;;2.10;1.90;;;;;;;;;;5021090;28;20036;-82
2021/07/13 00:15:34;;;;;;;2.88;2.67;;;;;;;;;;5021416;28;20034;-82
2021/07/13 00:18:01;;;;;;;2.45;2.25;;;;;;;;;;5021353;28;20058;-82
2021/07/13 00:20:27;;;;;;;2.60;2.40;;;;;;;;;;5020341;28;20018;-81
2021/07/13 00:22:53;;;;;;;3.88;2.85;;;;;;;;;;5015336;28;20097;-84
2021/07/13 00:25:20;;;;;;;3.80;2.72;;;;;;;;;;5027279;28;20018;-81
2021/07/13 00:27:47;;;;;;;2.95;2.65;;;;;;;;;;5014738;28;20030;-80
2021/07/13 00:30:14;;;;;;;2.75;2.55;;;;;;;;;;5016213;28;20049;-81
2021/07/13 00:32:40;;;;;;;2.50;2.10;;;;;;;;;;5010226;28;20038;-82
2021/07/13 00:35:07;;;;;;;2.30;2.05;;;;;;;;;;5004420;28;20475;-84
2021/07/13 00:37:34;;;;;;;2.78;2.22;;;;;;;;;;5020824;28;20022;-83
2021/07/13 00:40:00;;;;;;;2.30;2.10;;;;;;;;;;5008236;28;20034;-83
2021/07/13 00:42:26;;;;;;;2.50;2.30;;;;;;;;;;5026854;28;20041;-86
2021/07/13 00:44:52;;;;;;;2.35;2.15;;;;;;;;;;5026448;28;20045;-84
2021/07/13 00:47:22;;;;;;;1.80;1.70;;;;;;;;;;5025519;28;20026;-84
2021/07/13 00:49:49;;;;;;;4.80;2.17;;;;;;;;;;5022566;28;20394;-83
2021/07/13 00:52:15;;;;;;;2.58;1.98;;;;;;;;;;5026889;28;20097;-83
2021/07/13 00:54:42;;;;;;;2.97;2.33;;;;;;;;;;5009867;28;20090;-84
2021/07/13 00:57:12;;;;;;;2.38;2.17;;;;;;;;;;4987898;28;20121;-84
2021/07/13 00:59:38;;;;;;;2.22;2.03;;;;;;;;;;5003737;28;20368;-84
2021/07/13 01:02:05;;;;;;;2.10;2.00;;;;;;;;;;5006294;28;20243;-83
2021/07/13 01:04:31;;;;;;;3.10;2.80;;;;;;;;;;5005002;28;20030;-82
2021/07/13 01:07:16;;;;;;;2.72;2.53;;;;;;;;;;5004438;28;20065;-83
2021/07/13 01:09:51;;;;;;;3.83;2.70;;;;;;;;;;5004314;28;20034;-85
2021/07/13 01:12:17;;;;;;;2.85;2.47;;;;;;;;;;5003553;28;20455;-82
2021/07/13 01:14:50;;;;;;;3.42;2.85;;;;;;;;;;5004048;28;20022;-82
2021/07/13 01:17:18;;;;;;;4.70;3.30;;;;;;;;;;4988168;28;20093;-85
2021/07/13 01:19:50;;;;;;;2.80;2.60;;;;;;;;;;5003722;28;20045;-85
2021/07/13 01:22:17;;;;;;;2.70;2.50;;;;;;;;;;5012089;28;20041;-85
2021/07/13 01:24:49;;;;;;;2.50;2.30;;;;;;;;;;5003858;28;20501;-85
2021/07/13 01:27:34;;;;;;;2.33;2.13;;;;;;;;;;4986182;28;20038;-85
2021/07/13 01:30:02;;;;;;;2.30;2.20;;;;;;;;;;4986342;28;20061;-83
2021/07/13 01:32:29;;;;;;;2.78;2.50;;;;;;;;;;5004504;28;20395;-84
2021/07/13 01:34:58;;;;;;;4.32;2.13;;;;;;;;;;4988154;28;20023;-85
2021/07/13 01:37:25;;;;;;;3.55;2.40;;;;;;;;;;5003693;28;20053;-83
2021/07/13 01:39:54;;;;;;;2.92;2.33;;;;;;;;;;4985799;28;20027;-85
2021/07/13 01:42:21;;;;;;;3.53;2.25;;;;;;;;;;5005774;28;20031;-84
2021/07/13 01:44:48;;;;;;;2.17;1.98;;;;;;;;;;5002914;28;20027;-85
2021/07/13 01:47:15;;;;;;;2.05;1.95;;;;;;;;;;5002932;28;20037;-85
2021/07/13 01:49:41;;;;;;;2.55;2.25;;;;;;;;;;5001305;28;20026;-85
2021/07/13 01:52:07;;;;;;;2.47;2.28;;;;;;;;;;5014454;28;20027;-85
2021/07/13 01:54:34;;;;;;;2.28;1.98;;;;;;;;;;5023100;28;20030;-85
2021/07/13 01:57:00;;;;;;;2.10;1.98;;;;;;;;;;5009607;28;20087;-84
2021/07/13 01:59:27;;;;;;;2.58;2.38;;;;;;;;;;5006972;28;20030;-82
2021/07/13 02:02:01;;;;;;;4.13;2.00;;;;;;;;;;5022134;28;20030;-83
2021/07/13 02:04:31;;;;;;;2.47;2.25;;;;;;;;;;5021639;28;20026;-84
2021/07/13 02:07:03;;;;;;;4.30;2.38;;;;;;;;;;5004313;28;20081;-85
2021/07/13 02:09:29;;;;;;;2.78;2.58;;;;;;;;;;5005770;28;20056;-81
2021/07/13 02:11:56;;;;;;;3.05;2.75;;;;;;;;;;5032706;28;20033;-80
2021/07/13 02:14:23;;;;;;;2.30;2.10;;;;;;;;;;5016449;28;20014;-80
2021/07/13 02:16:50;;;;;;;2.40;2.20;;;;;;;;;;5034993;28;20108;-80
2021/07/13 02:19:16;;;;;;;2.05;1.95;;;;;;;;;;5034862;28;20041;-80
2021/07/13 02:21:42;;;;;;;2.85;2.42;;;;;;;;;;5024860;28;20077;-79
2021/07/13 02:24:09;;;;;;;2.53;2.25;;;;;;;;;;5035877;28;20018;-79
2021/07/13 02:26:55;;;;;;;2.03;1.92;;;;;;;;;;5009573;28;20026;-81
2021/07/13 02:29:28;;;;;;;2.60;2.15;;;;;;;;;;4999543;28;20037;-83
2021/07/13 02:31:56;;;;;;;2.03;1.92;;;;;;;;;;5005419;28;20049;-84
2021/07/13 02:34:23;;;;;;;2.85;2.25;;;;;;;;;;5008883;28;20053;-83
2021/07/13 02:36:51;;;;;;;2.70;2.35;;;;;;;;;;5012620;28;20022;-82
2021/07/13 02:39:19;;;;;;;2.67;2.33;;;;;;;;;;5006667;28;20050;-82
2021/07/13 02:41:45;;;;;;;2.42;2.17;;;;;;;;;;5004942;28;20030;-83
2021/07/13 02:44:12;;;;;;;5.18;2.53;;;;;;;;;;5003378;28;20065;-84
2021/07/13 02:46:43;;;;;;;4.57;2.58;;;;;;;;;;5003237;28;20018;-82
2021/07/13 02:49:11;;;;;;;2.53;2.33;;;;;;;;;;5004051;28;20068;-84
2021/07/13 02:51:38;;;;;;;2.63;2.40;;;;;;;;;;5009375;28;20031;-81
2021/07/13 02:54:06;;;;;;;3.08;2.80;;;;;;;;;;5019940;28;20539;-84
2021/07/13 02:56:33;;;;;;;2.75;2.55;;;;;;;;;;5022776;28;20076;-83
2021/07/13 02:59:02;;;;;;;2.45;2.25;;;;;;;;;;5022376;28;20049;-83
2021/07/13 03:01:29;;;;;;;5.78;2.92;;;;;;;;;;5022879;28;20030;-79
2021/07/13 03:03:58;;;;;;;2.97;2.63;;;;;;;;;;5022092;28;20459;-83
2021/07/13 03:06:24;;;;;;;2.75;2.55;;;;;;;;;;5022721;28;20521;-83
2021/07/13 03:08:51;;;;;;;3.63;2.45;;;;;;;;;;5023219;28;20041;-83
2021/07/13 03:11:18;;;;;;;2.72;2.53;;;;;;;;;;5023647;28;20026;-84
2021/07/13 03:13:44;;;;;;;3.85;2.45;;;;;;;;;;5022445;28;20022;-83
2021/07/13 03:16:10;;;;;;;2.50;2.30;;;;;;;;;;5021867;28;20042;-83
2021/07/13 03:18:37;;;;;;;3.13;2.30;;;;;;;;;;5005404;23;20121;-76
2021/07/13 03:21:04;;;;;;;2.00;1.88;;;;;;;;;;5003156;28;20034;-78
2021/07/13 03:23:30;;;;;;;3.03;2.72;;;;;;;;;;4993785;28;20034;-78
2021/07/13 03:25:58;;;;;;;4.20;2.45;;;;;;;;;;5000611;28;20026;-77
2021/07/13 03:28:26;;;;;;;2.42;2.25;;;;;;;;;;5008700;28;20049;-77
2021/07/13 03:30:53;;;;;;;3.10;2.50;;;;;;;;;;5018304;28;20026;-77
2021/07/13 03:33:20;;;;;;;4.35;2.30;;;;;;;;;;5018725;28;20434;-76
2021/07/13 03:35:47;;;;;;;2.53;2.05;;;;;;;;;;5018334;28;20497;-78
2021/07/13 03:38:15;;;;;;;4.63;2.63;;;;;;;;;;5017361;28;20101;-77
2021/07/13 03:40:42;;;;;;;2.05;1.95;;;;;;;;;;5018455;28;20026;-77
2021/07/13 03:43:08;;;;;;;2.17;2.08;;;;;;;;;;5017902;28;20037;-77
2021/07/13 03:45:34;;;;;;;2.95;2.53;;;;;;;;;;5016371;28;20090;-78
2021/07/13 03:48:00;;;;;;;3.33;2.60;;;;;;;;;;5014215;28;20362;-78
2021/07/13 03:50:32;;;;;;;2.80;2.60;;;;;;;;;;5011659;28;20096;-79
2021/07/13 03:52:58;;;;;;;2.90;2.70;;;;;;;;;;5005973;28;20072;-78
2021/07/13 03:55:24;;;;;;;2.97;2.60;;;;;;;;;;5014698;28;20017;-78
2021/07/13 03:57:52;;;;;;;7.10;2.65;;;;;;;;;;5014918;28;20020;-78
2021/07/13 04:00:19;;;;;;;3.42;3.13;;;;;;;;;;5014199;28;20070;-79
2021/07/13 04:02:45;;;;;;;3.00;2.80;;;;;;;;;;5013385;28;20041;-79
2021/07/13 04:05:12;;;;;;;5.70;3.83;;;;;;;;;;5012152;28;20033;-77
2021/07/13 04:07:38;;;;;;;4.80;2.92;;;;;;;;;;5014162;28;20030;-78
2021/07/13 04:10:08;;;;;;;3.00;2.35;;;;;;;;;;5014706;28;20029;-77
2021/07/13 04:12:34;;;;;;;7.10;2.80;;;;;;;;;;5012241;28;20022;-79
2021/07/13 04:15:00;;;;;;;5.10;3.67;;;;;;;;;;5015919;28;20389;-77
2021/07/13 04:17:27;;;;;;;2.45;2.25;;;;;;;;;;5013875;28;20029;-77
2021/07/13 04:19:53;;;;;;;3.67;2.83;;;;;;;;;;5012590;28;20030;-78
2021/07/13 04:22:19;;;;;;;2.97;2.67;;;;;;;;;;5011349;28;20026;-77
2021/07/13 04:24:46;;;;;;;3.15;2.88;;;;;;;;;;5017469;28;20061;-75
2021/07/13 04:27:12;;;;;;;4.22;2.67;;;;;;;;;;5011650;28;20033;-77
2021/07/13 04:29:38;;;;;;;3.15;2.90;;;;;;;;;;5011765;28;20022;-77
2021/07/13 04:32:04;;;;;;;5.45;3.10;;;;;;;;;;5012798;28;20324;-77
2021/07/13 04:34:31;;;;;;;3.95;3.53;;;;;;;;;;5012591;28;20022;-76
2021/07/13 04:36:57;;;;;;;5.40;3.40;;;;;;;;;;5013607;28;20022;-77
2021/07/13 04:39:23;;;;;;;3.00;2.80;;;;;;;;;;5012829;28;20114;-77
2021/07/13 04:41:49;;;;;;;3.42;3.13;;;;;;;;;;5000202;28;20034;-77
2021/07/13 04:44:15;;;;;;;4.93;2.92;;;;;;;;;;4995495;28;20065;-77
2021/07/13 04:46:41;;;;;;;2.72;2.53;;;;;;;;;;4999394;28;20034;-78
2021/07/13 04:49:08;;;;;;;3.25;3.00;;;;;;;;;;4997839;28;20168;-78
2021/07/13 04:51:35;;;;;;;2.78;2.30;;;;;;;;;;5004985;28;20114;-76
2021/07/13 04:54:01;;;;;;;5.35;3.20;;;;;;;;;;5009553;28;20026;-77
2021/07/13 04:56:27;;;;;;;4.57;2.83;;;;;;;;;;4992505;28;20033;-77
2021/07/13 04:58:53;;;;;;;10.43;3.20;;;;;;;;;;4991415;28;20022;-77
2021/07/13 05:01:19;;;;;;;2.30;2.10;;;;;;;;;;4991850;28;20058;-77
2021/07/13 05:03:45;;;;;;;3.28;2.97;;;;;;;;;;4992208;28;20065;-77
2021/07/13 05:06:11;;;;;;;5.45;3.13;;;;;;;;;;4994237;28;20037;-77
2021/07/13 05:08:39;;;;;;;4.95;2.75;;;;;;;;;;4996978;28;20035;-77
2021/07/13 05:11:06;;;;;;;3.67;2.88;;;;;;;;;;4995433;28;20077;-77
2021/07/13 05:13:32;;;;;;;2.70;2.35;;;;;;;;;;4992308;28;20029;-77
2021/07/13 05:15:58;;;;;;;5.32;2.60;;;;;;;;;;4991338;28;20018;-76
2021/07/13 05:18:24;;;;;;;4.72;2.58;;;;;;;;;;4990193;28;20352;-77
2021/07/13 05:20:56;;;;;;;2.70;2.50;;;;;;;;;;4991265;28;20113;-76
2021/07/13 05:23:22;;;;;;;4.07;2.90;;;;;;;;;;4989163;28;20080;-76
2021/07/13 05:25:48;;;;;;;2.45;2.28;;;;;;;;;;4994607;28;20038;-76
2021/07/13 05:28:14;;;;;;;3.28;2.97;;;;;;;;;;4994115;28;20041;-76
2021/07/13 05:30:41;;;;;;;2.47;2.28;;;;;;;;;;4998494;28;20030;-77
2021/07/13 05:33:07;;;;;;;4.20;2.45;;;;;;;;;;5016379;28;20049;-75
2021/07/13 05:35:33;;;;;;;10.18;2.58;;;;;;;;;;5008410;28;20045;-77
2021/07/13 05:37:59;;;;;;;4.95;2.95;;;;;;;;;;4997096;28;20030;-77
2021/07/13 05:40:25;;;;;;;6.55;2.67;;;;;;;;;;4997897;28;20030;-77
2021/07/13 05:42:51;;;;;;;7.57;2.70;;;;;;;;;;4998360;28;20041;-79
2021/07/13 05:45:18;;;;;;;4.40;2.60;;;;;;;;;;5006900;28;20029;-76
2021/07/13 05:47:44;;;;;;;6.82;2.40;;;;;;;;;;5011725;28;20066;-77
2021/07/13 05:50:10;;;;;;;3.67;3.08;;;;;;;;;;4997004;28;20035;-77
2021/07/13 05:52:37;;;;;;;2.72;2.45;;;;;;;;;;5001321;28;20084;-77
2021/07/13 05:55:04;;;;;;;4.40;2.70;;;;;;;;;;4993651;28;20026;-76
2021/07/13 05:57:30;;;;;;;4.78;2.28;;;;;;;;;;4998177;28;20102;-79
2021/07/13 05:59:56;;;;;;;5.43;3.08;;;;;;;;;;4998000;28;20053;-79
2021/07/13 06:02:23;;;;;;;4.57;4.05;;;;;;;;;;5000401;28;20037;-79
2021/07/13 06:04:49;;;;;;;6.43;3.33;;;;;;;;;;4998947;28;20027;-79
2021/07/13 06:07:15;;;;;;;5.88;3.17;;;;;;;;;;4999118;28;20053;-79
2021/07/13 06:09:41;;;;;;;3.58;3.10;;;;;;;;;;4998153;28;20030;-79
2021/07/13 06:12:07;;;;;;;5.20;2.75;;;;;;;;;;5003536;28;20023;-79
2021/07/13 06:14:36;;;;;;;6.10;2.72;;;;;;;;;;5009836;28;20045;-78
2021/07/13 06:17:03;;;;;;;4.68;3.05;;;;;;;;;;5013675;28;20014;-79
2021/07/13 06:19:29;;;;;;;6.15;3.40;;;;;;;;;;5000735;28;20058;-79
2021/07/13 06:21:55;;;;;;;8.25;3.80;;;;;;;;;;5007363;28;20062;-77
2021/07/13 06:24:21;;;;;;;6.25;3.08;;;;;;;;;;5016530;28;20037;-79
2021/07/13 06:26:47;;;;;;;3.05;2.75;;;;;;;;;;4998675;28;20545;-78
2021/07/13 06:29:13;;;;;;;3.97;3.17;;;;;;;;;;4998428;28;20030;-78
2021/07/13 06:31:39;;;;;;;4.45;2.33;;;;;;;;;;4999100;28;20455;-78
2021/07/13 06:34:06;;;;;;;4.03;2.85;;;;;;;;;;5000258;28;20030;-77
2021/07/13 06:36:32;;;;;;;2.72;2.30;;;;;;;;;;4997622;28;20105;-78
2021/07/13 06:38:58;;;;;;;3.75;2.70;;;;;;;;;;5000215;28;20036;-78
2021/07/13 06:41:25;;;;;;;6.25;3.05;;;;;;;;;;5000682;28;20080;-79
2021/07/13 06:43:51;;;;;;;4.47;2.53;;;;;;;;;;4999247;28;20030;-79
2021/07/13 06:46:17;;;;;;;4.68;3.03;;;;;;;;;;5000847;28;20041;-78
2021/07/13 06:48:43;;;;;;;3.92;3.00;;;;;;;;;;4999981;28;20038;-80
2021/07/13 06:51:09;;;;;;;7.78;2.95;;;;;;;;;;5000629;28;20030;-78
2021/07/13 06:53:35;;;;;;;10.90;3.70;;;;;;;;;;5018170;28;20034;-76
2021/07/13 06:56:01;;;;;;;6.32;3.17;;;;;;;;;;5006205;28;20036;-77
2021/07/13 06:58:27;;;;;;;5.45;2.53;;;;;;;;;;4998571;28;20086;-78
2021/07/13 07:00:53;;;;;;;36.78;4.45;;;;;;;;;;4999472;28;20042;-79
2021/07/13 07:03:19;;;;;;;19.02;4.10;;;;;;;;;;5001146;28;20136;-80
2021/07/13 07:05:46;;;;;;;18.13;3.97;;;;;;;;;;5001277;28;20135;-78
2021/07/13 07:08:12;;;;;;;18.88;4.45;;;;;;;;;;5098985;22;20037;-80
2021/07/13 07:10:38;;;;;;;11.88;3.28;;;;;;;;;;5046305;28;20033;-77
2021/07/13 07:13:04;;;;;;;17.75;4.35;;;;;;;;;;5051223;28;20067;-78
2021/07/13 07:15:30;;;;;;;9.43;3.25;;;;;;;;;;5033485;28;20028;-79
2021/07/13 07:17:56;;;;;;;15.10;4.35;;;;;;;;;;5035443;28;20026;-78
2021/07/13 07:20:23;;;;;;;8.00;3.85;;;;;;;;;;5055534;28;20031;-78
2021/07/13 07:22:50;;;;;;;7.53;4.15;;;;;;;;;;5039741;28;20060;-77
2021/07/13 07:25:17;;;;;;;15.65;4.18;;;;;;;;;;5029034;28;20021;-79
2021/07/13 07:27:44;;;;;;;5.85;3.33;;;;;;;;;;5043779;28;20033;-80
2021/07/13 07:30:11;;;;;;;13.73;4.10;;;;;;;;;;5034848;28;20033;-79
2021/07/13 07:32:37;;;;;;;9.27;3.95;;;;;;;;;;5023099;28;20018;-77
2021/07/13 07:35:04;;;;;;;9.88;3.88;;;;;;;;;;5023221;28;20017;-78
2021/07/13 07:37:31;;;;;;;9.60;3.60;;;;;;;;;;5040037;28;20025;-78
2021/07/13 07:39:57;;;;;;;4.80;3.70;;;;;;;;;;5039416;28;20386;-78
2021/07/13 07:42:23;;;;;;;7.43;3.03;;;;;;;;;;5058346;28;20394;-78
2021/07/13 07:44:49;;;;;;;4.65;2.90;;;;;;;;;;5056627;28;20033;-78
2021/07/13 07:47:15;;;;;;;3.83;2.80;;;;;;;;;;5056968;28;20025;-78
2021/07/13 07:49:41;;;;;;;5.57;3.20;;;;;;;;;;5035667;28;20362;-78
2021/07/13 07:52:07;;;;;;;4.35;3.08;;;;;;;;;;5032014;28;20389;-78
2021/07/13 07:54:33;;;;;;;5.53;3.45;;;;;;;;;;5038192;28;20048;-77
2021/07/13 07:57:00;;;;;;;5.80;2.80;;;;;;;;;;5031707;28;20033;-78
2021/07/13 07:59:26;;;;;;;17.67;5.05;;;;;;;;;;5047745;28;20016;-80
2021/07/13 08:01:52;;;;;;;10.10;4.20;;;;;;;;;;5064656;28;20054;-76
2021/07/13 08:04:18;;;;;;;19.15;4.72;;;;;;;;;;5063768;28;20029;-78
2021/07/13 08:06:44;;;;;;;13.85;4.38;;;;;;;;;;5045922;28;20024;-79
2021/07/13 08:09:10;;;;;;;22.45;5.75;;;;;;;;;;5027712;28;20039;-77
2021/07/13 08:11:37;;;;;;;21.33;4.32;;;;;;;;;;5045559;28;20048;-77
2021/07/13 08:14:04;;;;;;;7.97;3.67;;;;;;;;;;5054780;28;20055;-81
2021/07/13 08:16:35;;;;;;;19.58;5.85;;;;;;;;;;5051275;28;20425;-79
2021/07/13 08:19:01;;;;;;;7.65;3.33;;;;;;;;;;5052972;28;20059;-79
2021/07/13 08:21:28;;;;;;;12.30;4.53;;;;;;;;;;5033162;28;20037;-80
2021/07/13 08:23:54;;;;;;;11.27;4.43;;;;;;;;;;5043732;28;20041;-80
2021/07/13 08:26:20;;;;;;;4.22;3.83;;;;;;;;;;5034160;28;20458;-79
2021/07/13 08:28:46;;;;;;;4.00;3.70;;;;;;;;;;5036294;28;20086;-79
2021/07/13 08:31:12;;;;;;;3.92;3.63;;;;;;;;;;5040372;28;20498;-80
2021/07/13 08:33:38;;;;;;;5.07;3.60;;;;;;;;;;5068350;28;20100;-80
2021/07/13 08:36:04;;;;;;;3.78;3.47;;;;;;;;;;5056654;28;20052;-79
2021/07/13 08:38:30;;;;;;;4.57;3.92;;;;;;;;;;5040238;28;20029;-81
2021/07/13 08:40:59;;;;;;;6.30;3.97;;;;;;;;;;5042843;28;20036;-80
2021/07/13 08:43:26;;;;;;;4.90;4.50;;;;;;;;;;5042335;28;20498;-81
2021/07/13 08:45:55;;;;;;;6.20;4.53;;;;;;;;;;5042038;28;20087;-81
2021/07/13 08:48:22;;;;;;;6.22;4.65;;;;;;;;;;5047471;28;20096;-80
2021/07/13 08:50:53;;;;;;;6.40;4.47;;;;;;;;;;5048824;28;20037;-82
2021/07/13 08:53:22;;;;;;;5.20;3.97;;;;;;;;;;5026209;28;20060;-80
2021/07/13 08:55:54;;;;;;;5.82;4.88;;;;;;;;;;5032444;28;20268;-81
2021/07/13 08:58:21;;;;;;;6.45;4.93;;;;;;;;;;5050862;28;20025;-81
2021/07/13 09:00:47;;;;;;;5.63;4.97;;;;;;;;;;5028058;28;20044;-80
2021/07/13 09:03:14;;;;;;;5.22;4.75;;;;;;;;;;5068656;28;20078;-80
2021/07/13 09:05:43;;;;;;;5.20;4.63;;;;;;;;;;5048765;28;20052;-80
2021/07/13 09:08:17;;;;;;;8.07;4.68;;;;;;;;;;5034368;28;20029;-80
2021/07/13 09:11:02;;;;;;;4.65;4.25;;;;;;;;;;5039674;28;20497;-81
2021/07/13 09:13:30;;;;;;;5.78;5.00;;;;;;;;;;5063176;28;20104;-82
2021/07/13 09:16:00;;;;;;;5.63;4.50;;;;;;;;;;5047056;28;20186;-81
2021/07/13 09:18:33;;;;;;;5.28;4.50;;;;;;;;;;5042714;28;20100;-81
2021/07/13 09:21:08;;;;;;;4.32;3.90;;;;;;;;;;5026165;28;20033;-82
2021/07/13 09:23:35;;;;;;;5.53;4.82;;;;;;;;;;5043976;28;20120;-81
2021/07/13 09:26:01;;;;;;;5.63;4.22;;;;;;;;;;5033482;28;20044;-81
2021/07/13 09:28:27;;;;;;;4.85;4.45;;;;;;;;;;5026667;28;20558;-81
2021/07/13 09:30:55;;;;;;;5.03;4.55;;;;;;;;;;5043889;28;20037;-82
2021/07/13 09:33:25;;;;;;;4.97;4.30;;;;;;;;;;5063970;28;20021;-82
2021/07/13 09:36:00;;;;;;;4.68;4.28;;;;;;;;;;5048179;28;20085;-80
2021/07/13 09:38:27;;;;;;;6.50;5.22;;;;;;;;;;5043664;28;20051;-84
2021/07/13 09:41:00;;;;;;;5.20;4.72;;;;;;;;;;5046966;28;20037;-85
2021/07/13 09:43:26;;;;;;;6.05;5.40;;;;;;;;;;5042222;28;20478;-82
2021/07/13 09:45:52;;;;;;;7.32;4.82;;;;;;;;;;5030391;28;20094;-82
2021/07/13 09:48:18;;;;;;;6.50;5.85;;;;;;;;;;5044137;28;20131;-82
2021/07/13 09:50:46;;;;;;;5.53;4.95;;;;;;;;;;5034560;28;20075;-83
2021/07/13 09:53:16;;;;;;;5.20;4.80;;;;;;;;;;5056573;28;20021;-83
2021/07/13 09:55:43;;;;;;;5.47;4.23;;;;;;;;;;5043828;28;20036;-83
2021/07/13 09:58:10;;;;;;;9.00;5.60;;;;;;;;;;5061784;28;20572;-81
2021/07/13 10:00:36;;;;;;;6.53;6.03;;;;;;;;;;5060702;28;20343;-81
2021/07/13 10:03:03;;;;;;;7.57;5.13;;;;;;;;;;5041702;22;20101;-79
2021/07/13 10:05:29;;;;;;;7.57;6.03;;;;;;;;;;5017030;28;20024;-80
2021/07/13 10:07:56;;;;;;;4.80;3.85;;;;;;;;;;5019459;28;20022;-79
2021/07/13 10:10:24;;;;;;;4.20;1.92;;;;;;;;;;5005053;28;20026;-79
2021/07/13 10:12:53;;;;;;;2.15;1.50;;;;;;;;;;5002664;28;20027;-80
2021/07/13 10:15:22;;;;;;;2.40;0.95;;;;;;;;;;4998963;28;20022;-80
2021/07/13 10:17:49;;;;;;;6.63;1.35;;;;;;;;;;4998955;28;20026;-79
2021/07/13 10:20:16;;;;;;;2.85;0.95;;;;;;;;;;5001003;28;20018;-80
2021/07/13 10:22:43;;;;;;;2.70;0.85;;;;;;;;;;4999158;28;20076;-80
2021/07/13 10:25:10;;;;;;;0.68;0.65;;;;;;;;;;5002053;28;20044;-80
2021/07/13 10:27:43;;;;;;;1.73;0.90;;;;;;;;;;4988566;28;20026;-81
2021/07/13 10:30:29;;;;;;;0.63;0.52;;;;;;;;;;5004442;28;20056;-81
2021/07/13 10:32:55;;;;;;;1.45;0.80;;;;;;;;;;4992771;28;20053;-80
2021/07/13 10:35:31;;;;;;;1.55;0.90;;;;;;;;;;5016698;28;20082;-81
2021/07/13 10:38:20;;;;;;;1.33;0.85;;;;;;;;;;4997223;28;20499;-80
2021/07/13 10:40:47;;;;;;;0.70;0.70;;;;;;;;;;5004603;28;20032;-81
2021/07/13 10:43:20;;;;;;;3.63;0.50;;;;;;;;;;4989120;28;20042;-79
2021/07/13 10:45:47;;;;;;;1.83;0.70;;;;;;;;;;5003355;28;20076;-82
2021/07/13 10:48:17;;;;;;;1.75;1.50;;;;;;;;;;5004467;28;20150;-79
2021/07/13 10:50:49;;;;;;;1.85;0.77;;;;;;;;;;5005194;28;20022;-82
2021/07/13 10:53:15;;;;;;;1.55;0.80;;;;;;;;;;5003886;28;20050;-80
2021/07/13 10:55:41;;;;;;;3.47;0.70;;;;;;;;;;5011120;28;20027;-78
2021/07/13 10:58:14;;;;;;;0.85;0.70;;;;;;;;;;5028206;28;20045;-77
2021/07/13 11:00:49;;;;;;;1.85;0.73;;;;;;;;;;5008787;28;20348;-79
2021/07/13 11:03:30;;;;;;;5.15;1.10;;;;;;;;;;5004278;28;20038;-80
2021/07/13 11:06:06;;;;;;;0.70;0.70;;;;;;;;;;5004589;28;20022;-80
2021/07/13 11:08:41;;;;;;;0.50;0.50;;;;;;;;;;4996841;28;20104;-78
2021/07/13 11:11:07;;;;;;;0.88;0.55;;;;;;;;;;4989248;28;20026;-81
2021/07/13 11:13:34;;;;;;;1.08;0.55;;;;;;;;;;5003008;28;20018;-82
2021/07/13 11:16:00;;;;;;;0.70;0.55;;;;;;;;;;4990549;28;20383;-79
2021/07/13 11:18:27;;;;;;;0.70;0.70;;;;;;;;;;5007225;28;20037;-81
2021/07/13 11:20:54;;;;;;;6.43;0.88;;;;;;;;;;5011410;28;20069;-82
2021/07/13 11:23:27;;;;;;;1.77;0.47;;;;;;;;;;5008016;28;20064;-82
2021/07/13 11:26:06;;;;;;;3.70;0.63;;;;;;;;;;5005518;28;20034;-81
2021/07/13 11:28:33;;;;;;;0.98;0.50;;;;;;;;;;4988429;28;20022;-82
2021/07/13 11:31:02;;;;;;;1.20;0.60;;;;;;;;;;4989861;28;20038;-81
2021/07/13 11:33:29;;;;;;;3.75;0.60;;;;;;;;;;5016978;28;20026;-80
2021/07/13 11:35:56;;;;;;;0.68;0.68;;;;;;;;;;5011913;28;20434;-81
2021/07/13 11:38:30;;;;;;;4.78;0.75;;;;;;;;;;5002417;28;20030;-82
2021/07/13 11:41:11;;;;;;;0.80;0.60;;;;;;;;;;5002895;28;20029;-82
2021/07/13 11:43:37;;;;;;;5.32;1.45;;;;;;;;;;4986063;28;20029;-81
2021/07/13 11:46:13;;;;;;;3.25;0.52;;;;;;;;;;4985073;28;20106;-82
2021/07/13 11:48:40;;;;;;;1.17;0.88;;;;;;;;;;5001384;28;20333;-80
2021/07/13 11:51:08;;;;;;;0.50;0.50;;;;;;;;;;4984817;28;20034;-81
2021/07/13 11:53:34;;;;;;;0.40;0.40;;;;;;;;;;5002280;28;20026;-81
2021/07/13 11:56:02;;;;;;;1.52;0.50;;;;;;;;;;4994348;28;20036;-81
2021/07/13 11:58:31;;;;;;;1.88;0.40;;;;;;;;;;4995236;28;20041;-81
2021/07/13 12:01:21;;;;;;;0.55;0.40;;;;;;;;;;5004100;28;20034;-80
2021/07/13 12:03:47;;;;;;;10.63;1.08;;;;;;;;;;5011799;28;20029;-82
2021/07/13 12:06:17;;;;;;;3.53;0.77;;;;;;;;;;4984036;28;20519;-80
2021/07/13 12:08:43;;;;;;;7.18;1.45;;;;;;;;;;4985261;28;20602;-81
2021/07/13 12:11:11;;;;;;;18.13;1.35;;;;;;;;;;5003525;28;20046;-81
2021/07/13 12:13:38;;;;;;;2.72;0.68;;;;;;;;;;5004009;28;20022;-83
2021/07/13 12:16:17;;;;;;;3.47;1.10;;;;;;;;;;5004251;28;20074;-81
2021/07/13 12:18:43;;;;;;;5.22;1.00;;;;;;;;;;5002938;28;20034;-82
2021/07/13 12:21:13;;;;;;;24.80;1.77;;;;;;;;;;5010895;28;20451;-83
2021/07/13 12:23:39;;;;;;;8.43;1.00;;;;;;;;;;5012099;28;20019;-82
2021/07/13 12:26:21;;;;;;;20.58;2.40;;;;;;;;;;5012521;28;20047;-82
2021/07/13 12:29:04;;;;;;;7.18;0.63;;;;;;;;;;5006632;28;20029;-82
2021/07/13 12:31:31;;;;;;;2.10;0.25;;;;;;;;;;4992358;28;20043;-81
2021/07/13 12:33:57;;;;;;;2.85;0.22;;;;;;;;;;4991080;28;20022;-81
2021/07/13 12:36:31;;;;;;;0.60;0.35;;;;;;;;;;5004922;28;20034;-81
2021/07/13 12:38:57;;;;;;;2.00;0.40;;;;;;;;;;4996026;28;20043;-82
2021/07/13 12:41:27;;;;;;;3.67;0.55;;;;;;;;;;5005601;28;20137;-82
2021/07/13 12:43:53;;;;;;;0.88;0.35;;;;;;;;;;4998319;28;20041;-82
2021/07/13 12:46:26;;;;;;;2.58;0.30;;;;;;;;;;5001635;28;20030;-81
2021/07/13 12:48:52;;;;;;;2.42;0.40;;;;;;;;;;4994547;28;20027;-82
2021/07/13 12:51:23;;;;;;;2.08;0.50;;;;;;;;;;4987096;28;20035;-80
2021/07/13 12:54:02;;;;;;;4.05;0.30;;;;;;;;;;5004875;28;20034;-79
2021/07/13 12:56:32;;;;;;;1.65;0.30;;;;;;;;;;4991696;28;20022;-80
2021/07/13 12:59:08;;;;;;;2.13;0.30;;;;;;;;;;5010284;28;20030;-82
2021/07/13 13:01:34;;;;;;;2.40;0.40;;;;;;;;;;4987463;28;20026;-81
2021/07/13 13:04:14;;;;;;;1.80;0.35;;;;;;;;;;4986349;28;20570;-83
2021/07/13 13:06:41;;;;;;;0.40;0.25;;;;;;;;;;5004352;28;20034;-81
2021/07/13 13:09:12;;;;;;;4.68;0.55;;;;;;;;;;5004559;28;20026;-81
2021/07/13 13:11:38;;;;;;;0.47;0.45;;;;;;;;;;4985902;28;20030;-82
2021/07/13 13:14:08;;;;;;;0.30;0.20;;;;;;;;;;5005154;28;20332;-80
2021/07/13 13:16:38;;;;;;;1.55;0.45;;;;;;;;;;4990120;28;20035;-83
2021/07/13 13:19:05;;;;;;;1.58;0.40;;;;;;;;;;5001073;28;20034;-80
2021/07/13 13:21:32;;;;;;;3.42;0.50;;;;;;;;;;5002788;28;20022;-82
2021/07/13 13:23:59;;;;;;;3.85;0.90;;;;;;;;;;5004136;28;20030;-80
2021/07/13 13:26:25;;;;;;;0.88;0.60;;;;;;;;;;5001545;28;20106;-81
2021/07/13 13:28:52;;;;;;;3.90;0.60;;;;;;;;;;5004375;28;20038;-82
2021/07/13 13:31:18;;;;;;;2.88;0.50;;;;;;;;;;5002831;28;20061;-79
2021/07/13 13:33:46;;;;;;;1.05;0.60;;;;;;;;;;5007395;28;20042;-84
2021/07/13 13:41:35;;;;;;;0.45;0.45;;;;;;;;;;5001950;28;20068;-80
2021/07/13 13:44:01;;;;;;;0.45;0.45;;;;;;;;;;5003912;28;20045;-81
2021/07/13 13:46:27;;;;;;;2.17;0.50;;;;;;;;;;4984715;28;20138;-81
2021/07/13 13:48:53;;;;;;;2.53;0.38;;;;;;;;;;5005749;28;20035;-81
2021/07/13 13:51:19;;;;;;;73.68;4.40;;;;;;;;;;5002788;28;20022;-84
2021/07/13 13:53:45;;;;;;;4.00;1.00;;;;;;;;;;5006340;28;20030;-84
2021/07/13 13:56:13;;;;;;;0.75;0.60;;;;;;;;;;5020319;28;20013;-81
2021/07/13 13:58:40;;;;;;;0.95;0.80;;;;;;;;;;5015962;28;20026;-82
2021/07/13 14:01:07;;;;;;;0.85;0.60;;;;;;;;;;5013100;28;20085;-79
2021/07/13 14:03:33;;;;;;;0.65;0.60;;;;;;;;;;5021063;28;20025;-82
2021/07/13 14:05:59;;;;;;;1.92;0.80;;;;;;;;;;5014693;28;20028;-83
2021/07/13 14:08:25;;;;;;;3.10;0.90;;;;;;;;;;5007621;28;20030;-83
2021/07/13 14:10:51;;;;;;;2.88;1.10;;;;;;;;;;5016279;28;20048;-81
2021/07/13 14:13:17;;;;;;;2.80;0.80;;;;;;;;;;5023795;28;20441;-78
2021/07/13 14:15:43;;;;;;;4.53;0.90;;;;;;;;;;4998562;28;20027;-80
2021/07/13 14:18:09;;;;;;;1.30;0.90;;;;;;;;;;4992019;28;20026;-81
2021/07/13 14:20:36;;;;;;;1.67;1.00;;;;;;;;;;5002101;28;20045;-81
2021/07/13 14:23:02;;;;;;;5.03;1.00;;;;;;;;;;4990067;28;20037;-81
2021/07/13 14:25:28;;;;;;;2.28;1.20;;;;;;;;;;5013236;28;20434;-82
2021/07/13 14:27:55;;;;;;;3.95;1.27;;;;;;;;;;5006084;28;20034;-83
2021/07/13 14:30:22;;;;;;;1.77;1.30;;;;;;;;;;5004060;28;20109;-82
2021/07/13 14:32:51;;;;;;;2.40;1.20;;;;;;;;;;4991250;28;20018;-79
2021/07/13 14:35:17;;;;;;;1.80;0.90;;;;;;;;;;5007217;28;20019;-82
2021/07/13 14:37:43;;;;;;;1.05;0.90;;;;;;;;;;5002391;28;20030;-80
2021/07/13 14:40:09;;;;;;;2.85;1.20;;;;;;;;;;4984138;28;20114;-80
2021/07/13 14:42:36;;;;;;;1.58;0.90;;;;;;;;;;4987102;28;20026;-80
2021/07/13 14:45:02;;;;;;;1.23;1.10;;;;;;;;;;5003464;28;20057;-82
2021/07/13 14:47:29;;;;;;;4.35;1.13;;;;;;;;;;4985329;28;20097;-81
2021/07/13 14:49:55;;;;;;;1.65;1.05;;;;;;;;;;5000826;28;20037;-82
2021/07/13 14:52:21;;;;;;;2.38;1.42;;;;;;;;;;4988695;28;20046;-82